createdAt,value
2019-03-19T00:00:19.942Z,4.30
2019-03-19T00:02:49.402Z,4.40
2019-03-19T00:05:18.938Z,4.40
2019-03-19T00:07:48.393Z,4.40
2019-03-19T00:10:17.867Z,4.50
2019-03-19T00:12:47.262Z,4.50
2019-03-19T00:15:17.123Z,4.30
2019-03-19T00:17:46.592Z,4.20
2019-03-19T00:20:16.016Z,4.40
2019-03-19T00:22:45.523Z,4.20
2019-03-19T00:25:15.070Z,4.40
2019-03-19T00:27:44.525Z,4.40
2019-03-19T00:30:14.293Z,4.20
2019-03-19T00:32:43.749Z,4.20
2019-03-19T00:35:13.313Z,4.10
2019-03-19T00:37:42.873Z,4.20
2019-03-19T00:40:12.970Z,4.10
2019-03-19T00:42:42.409Z,4.00
2019-03-19T00:45:12.580Z,3.90
2019-03-19T00:47:42.163Z,4.00
2019-03-19T00:50:12.017Z,4.10
2019-03-19T00:52:41.441Z,4.10
2019-03-19T00:55:11.231Z,4.00
2019-03-19T00:57:40.670Z,4.00
2019-03-19T01:00:10.669Z,4.00
2019-03-19T01:02:40.079Z,4.00
2019-03-19T01:05:09.667Z,4.20
2019-03-19T01:07:40.101Z,4.10
2019-03-19T01:10:10.753Z,3.90
2019-03-19T01:12:40.174Z,3.80
2019-03-19T01:15:10.566Z,3.70
2019-03-19T01:17:40.087Z,3.80
2019-03-19T01:20:12.830Z,3.90
2019-03-19T01:22:42.281Z,3.80
2019-03-19T01:25:12.959Z,3.70
2019-03-19T01:27:42.371Z,3.80
2019-03-19T01:30:12.368Z,3.80
2019-03-19T01:32:41.793Z,3.60
2019-03-19T01:35:11.415Z,3.40
2019-03-19T01:37:40.909Z,3.50
2019-03-19T01:40:10.434Z,3.50
2019-03-19T01:42:40.123Z,3.70
2019-03-19T01:45:09.754Z,3.60
2019-03-19T01:47:39.350Z,3.60
2019-03-19T01:50:09.064Z,3.50
2019-03-19T01:52:38.536Z,3.50
2019-03-19T01:55:09.175Z,3.50
2019-03-19T01:57:38.623Z,3.40
2019-03-19T02:00:09.298Z,3.30
2019-03-19T02:02:38.794Z,3.30
2019-03-19T02:05:09.091Z,3.30
2019-03-19T02:07:38.521Z,3.40
2019-03-19T02:10:08.710Z,3.40
2019-03-19T02:12:38.566Z,3.30
2019-03-19T02:15:09.046Z,3.40
2019-03-19T02:17:38.494Z,3.30
2019-03-19T02:20:09.636Z,3.30
2019-03-19T02:22:39.126Z,3.40
2019-03-19T02:25:10.250Z,3.30
2019-03-19T02:27:39.809Z,3.20
2019-03-19T02:30:10.428Z,3.20
2019-03-19T02:32:40.134Z,3.30
2019-03-19T02:35:09.724Z,3.20
2019-03-19T02:37:39.184Z,3.20
2019-03-19T02:40:09.077Z,3.20
2019-03-19T02:42:38.496Z,3.30
2019-03-19T02:45:08.416Z,3.10
2019-03-19T02:47:37.842Z,3.10
2019-03-19T02:50:08.104Z,3.10
2019-03-19T02:52:37.547Z,3.20
2019-03-19T02:55:07.329Z,3.20
2019-03-19T02:57:36.810Z,3.10
2019-03-19T03:00:07.284Z,3.10
2019-03-19T03:02:36.724Z,3.20
2019-03-19T03:05:07.895Z,3.10
2019-03-19T03:07:37.328Z,3.20
2019-03-19T03:10:07.322Z,3.40
2019-03-19T03:12:36.752Z,3.40
2019-03-19T03:15:06.635Z,3.30
2019-03-19T03:17:36.055Z,3.30
2019-03-19T03:20:05.891Z,3.30
2019-03-19T03:25:04.685Z,3.30
2019-03-19T03:27:34.135Z,3.30
2019-03-19T03:30:03.619Z,3.20
2019-03-19T03:32:33.084Z,3.20
2019-03-19T03:35:02.552Z,3.10
2019-03-19T03:37:31.976Z,3.10
2019-03-19T03:40:01.417Z,3.00
2019-03-19T03:42:30.863Z,3.00
2019-03-19T03:45:00.469Z,2.90
2019-03-19T03:47:29.948Z,3.00
2019-03-19T03:49:59.375Z,2.90
2019-03-19T03:52:28.824Z,2.80
2019-03-19T03:54:58.281Z,2.90
2019-03-19T03:57:27.705Z,2.90
2019-03-19T03:59:57.165Z,2.80
2019-03-19T04:02:26.683Z,2.80
2019-03-19T04:04:56.157Z,2.90
2019-03-19T04:07:25.635Z,2.60
2019-03-19T04:09:55.088Z,2.60
2019-03-19T04:12:24.517Z,2.60
2019-03-19T04:14:54.447Z,2.70
2019-03-19T04:17:24.410Z,2.80
2019-03-19T04:19:56.549Z,2.70
2019-03-19T04:22:26.411Z,2.60
2019-03-19T04:24:56.064Z,2.60
2019-03-19T04:27:25.475Z,2.70
2019-03-19T04:29:55.903Z,2.60
2019-03-19T04:32:25.364Z,2.70
2019-03-19T04:34:54.797Z,2.50
2019-03-19T04:37:24.212Z,2.30
2019-03-19T04:39:53.855Z,2.30
2019-03-19T04:42:23.325Z,2.40
2019-03-19T04:44:52.747Z,2.30
2019-03-19T04:47:22.169Z,2.30
2019-03-19T04:49:51.592Z,2.20
2019-03-19T04:52:21.031Z,2.30
2019-03-19T04:54:51.764Z,2.30
2019-03-19T04:57:26.607Z,2.20
2019-03-19T04:59:52.409Z,2.30
2019-03-19T05:02:21.843Z,2.20
2019-03-19T05:04:53.385Z,2.30
2019-03-19T05:07:22.796Z,2.20
2019-03-19T05:09:52.245Z,2.30
2019-03-19T05:12:21.708Z,2.30
2019-03-19T05:14:51.644Z,2.30
2019-03-19T05:17:23.060Z,2.20
2019-03-19T05:19:52.811Z,2.30
2019-03-19T05:22:22.225Z,2.30
2019-03-19T05:24:51.656Z,2.30
2019-03-19T05:27:21.114Z,2.40
2019-03-19T05:29:52.194Z,2.40
2019-03-19T05:32:22.845Z,2.50
2019-03-19T05:34:52.334Z,2.60
2019-03-19T05:37:21.743Z,2.70
2019-03-19T05:39:51.202Z,3.00
2019-03-19T05:42:20.622Z,3.40
2019-03-19T05:44:50.050Z,3.50
2019-03-19T05:47:19.934Z,3.70
2019-03-19T05:49:49.430Z,4.00
2019-03-19T05:52:18.845Z,4.10
2019-03-19T05:54:48.280Z,3.80
2019-03-19T05:57:17.741Z,3.70
2019-03-19T05:59:47.174Z,3.30
2019-03-19T06:02:16.630Z,3.20
2019-03-19T06:04:46.081Z,3.20
2019-03-19T06:07:15.550Z,3.20
2019-03-19T06:09:45.026Z,3.40
2019-03-19T06:12:14.473Z,3.80
2019-03-19T06:14:44.131Z,3.90
2019-03-19T06:17:13.732Z,3.80
2019-03-19T06:19:43.232Z,3.80
2019-03-19T06:22:12.708Z,3.70
2019-03-19T06:24:42.258Z,3.50
2019-03-19T06:27:11.696Z,3.50
2019-03-19T06:29:41.343Z,3.90
2019-03-19T06:32:11.109Z,4.40
2019-03-19T06:34:41.020Z,5.00
2019-03-19T06:39:39.331Z,5.30
2019-03-19T06:42:08.037Z,5.40
2019-03-19T06:44:37.478Z,6.00
2019-03-19T06:47:06.884Z,5.90
2019-03-19T06:49:36.330Z,6.20
2019-03-19T06:52:05.753Z,5.90
2019-03-19T06:54:35.170Z,5.00
2019-03-19T06:57:04.662Z,4.70
2019-03-19T06:59:34.122Z,4.70
2019-03-19T07:02:03.565Z,3.70
2019-03-19T07:04:33.027Z,4.60
2019-03-19T07:07:02.481Z,4.60
2019-03-19T07:09:31.999Z,4.80
2019-03-19T07:12:01.841Z,4.80
2019-03-19T07:14:31.691Z,4.50
2019-03-19T07:17:01.096Z,4.60
2019-03-19T07:19:30.541Z,4.60
2019-03-19T07:21:59.945Z,4.40
2019-03-19T07:24:29.388Z,4.50
2019-03-19T07:26:58.823Z,4.60
2019-03-19T07:29:28.293Z,4.80
2019-03-19T07:31:57.721Z,4.70
2019-03-19T07:34:27.157Z,4.90
2019-03-19T07:36:56.751Z,4.80
2019-03-19T07:39:26.224Z,5.00
2019-03-19T07:41:55.659Z,5.30
2019-03-19T07:44:25.102Z,5.50
2019-03-19T07:46:54.547Z,5.30
2019-03-19T07:49:24.009Z,5.40
2019-03-19T07:51:53.678Z,5.40
2019-03-19T07:54:23.157Z,6.10
2019-03-19T07:56:52.588Z,6.50
2019-03-19T07:59:22.222Z,6.20
2019-03-19T08:01:51.683Z,6.40
2019-03-19T08:04:21.106Z,5.80
2019-03-19T08:06:50.533Z,6.30
2019-03-19T08:09:19.969Z,5.80
2019-03-19T08:14:18.349Z,5.50
2019-03-19T08:16:47.835Z,5.80
2019-03-19T08:19:17.239Z,5.90
2019-03-19T08:21:46.726Z,5.70
2019-03-19T08:24:16.137Z,5.50
2019-03-19T08:26:45.549Z,5.30
2019-03-19T08:29:15.018Z,5.30
2019-03-19T08:31:44.462Z,5.30
2019-03-19T08:34:14.156Z,5.40
2019-03-19T08:36:43.612Z,5.40
2019-03-19T08:39:13.140Z,5.40
2019-03-19T08:41:42.556Z,5.30
2019-03-19T08:44:12.024Z,5.40
2019-03-19T08:46:41.450Z,5.60
2019-03-19T08:49:11.100Z,5.60
2019-03-19T08:51:40.531Z,5.60
2019-03-19T08:54:09.961Z,5.90
2019-03-19T08:56:39.435Z,5.90
2019-03-19T08:59:08.914Z,6.10
2019-03-19T09:01:38.398Z,6.40
2019-03-19T09:04:07.798Z,6.40
2019-03-19T09:06:38.438Z,6.60
2019-03-19T09:09:09.657Z,6.60
2019-03-19T09:11:39.092Z,6.50
2019-03-19T09:14:08.518Z,6.30
2019-03-19T09:16:37.922Z,6.20
2019-03-19T09:19:07.378Z,6.30
2019-03-19T09:21:36.828Z,6.20
2019-03-19T09:24:06.290Z,6.30
2019-03-19T09:26:35.736Z,6.20
2019-03-19T09:29:05.282Z,6.10
2019-03-19T09:31:34.822Z,6.20
2019-03-19T09:34:04.400Z,6.40
2019-03-19T09:36:33.849Z,6.30
2019-03-19T09:39:04.857Z,6.40
2019-03-19T09:41:34.264Z,6.30
2019-03-19T09:44:03.711Z,6.30
2019-03-19T09:46:33.137Z,6.50
2019-03-19T09:49:02.607Z,6.40
2019-03-19T09:51:32.018Z,6.40
2019-03-19T09:54:01.507Z,6.50
2019-03-19T09:56:30.957Z,6.50
2019-03-19T09:59:00.447Z,6.70
2019-03-19T10:01:29.880Z,6.90
2019-03-19T10:03:59.350Z,6.50
2019-03-19T10:06:28.766Z,6.60
2019-03-19T10:08:58.271Z,6.70
2019-03-19T10:11:27.727Z,7.10
2019-03-19T10:13:57.158Z,7.00
2019-03-19T10:16:26.594Z,6.80
2019-03-19T10:18:56.029Z,7.20
2019-03-19T10:48:44.645Z,10.40
2019-03-19T10:51:14.111Z,10.10
2019-03-19T10:56:12.417Z,8.20
2019-03-19T10:58:41.844Z,7.80
2019-03-19T11:01:11.315Z,7.20
2019-03-19T11:03:40.807Z,7.00
2019-03-19T11:06:10.257Z,6.80
2019-03-19T11:08:39.688Z,6.70
2019-03-19T11:11:09.143Z,6.70
2019-03-19T11:13:38.583Z,7.10
2019-03-19T11:16:08.029Z,7.50
2019-03-19T11:18:37.514Z,8.30
2019-03-19T11:23:35.799Z,8.30
2019-03-19T11:26:05.387Z,7.70
2019-03-19T11:28:34.822Z,7.60
2019-03-19T11:31:04.279Z,7.60
2019-03-19T11:33:33.713Z,7.10
2019-03-19T11:36:03.154Z,7.20
2019-03-19T11:38:32.727Z,6.90
2019-03-19T11:41:02.494Z,7.00
2019-03-19T11:43:31.983Z,7.10
2019-03-19T11:50:59.533Z,6.50
2019-03-19T11:53:29.064Z,6.50
2019-03-19T11:55:58.467Z,6.50
2019-03-19T11:58:27.890Z,6.50
2019-03-19T12:00:59.868Z,6.30
2019-03-19T12:03:29.320Z,6.30
2019-03-19T12:05:58.769Z,6.30
2019-03-19T12:08:28.203Z,6.40
2019-03-19T12:10:58.039Z,6.60
2019-03-19T12:13:27.466Z,6.70
2019-03-19T12:15:56.930Z,6.70
2019-03-19T12:18:26.305Z,6.80
2019-03-19T12:20:55.765Z,6.80
2019-03-19T12:23:26.368Z,6.80
2019-03-19T12:25:55.832Z,6.70
2019-03-19T12:28:25.275Z,6.60
2019-03-19T12:30:55.016Z,6.60
2019-03-19T12:33:24.618Z,6.50
2019-03-19T12:35:54.134Z,6.40
2019-03-19T12:38:24.051Z,6.20
2019-03-19T12:40:53.502Z,6.30
2019-03-19T12:43:22.927Z,6.30
2019-03-19T12:45:52.394Z,6.30
2019-03-19T12:48:21.828Z,6.30
2019-03-19T12:50:51.336Z,6.30
2019-03-19T12:53:20.814Z,6.50
2019-03-19T12:55:50.312Z,6.50
2019-03-19T13:00:48.618Z,6.80
2019-03-19T13:03:18.060Z,6.60
2019-03-19T13:05:47.523Z,6.70
2019-03-19T13:08:17.000Z,6.90
2019-03-19T13:10:46.452Z,6.80
2019-03-19T13:13:15.896Z,7.10
2019-03-19T13:15:45.367Z,7.20
2019-03-19T13:18:14.864Z,7.50
2019-03-19T13:30:44.962Z,10.00
2019-03-19T13:33:11.300Z,8.40
2019-03-19T13:35:40.742Z,7.80
2019-03-19T13:38:12.535Z,7.60
2019-03-19T13:40:41.319Z,7.50
2019-03-19T13:43:10.747Z,7.20
2019-03-19T13:45:40.162Z,7.20
2019-03-19T13:48:09.596Z,7.10
2019-03-19T13:50:39.034Z,7.00
2019-03-19T13:53:08.531Z,7.10
2019-03-19T13:55:37.969Z,7.10
2019-03-19T13:58:07.406Z,7.30
2019-03-19T14:00:38.388Z,7.40
2019-03-19T14:03:07.853Z,7.30
2019-03-19T14:05:37.278Z,7.20
2019-03-19T14:08:06.739Z,7.00
2019-03-19T14:10:36.259Z,7.10
2019-03-19T14:13:05.921Z,7.20
2019-03-19T14:15:35.360Z,7.40
2019-03-19T14:18:04.832Z,7.30
2019-03-19T14:20:34.281Z,7.30
2019-03-19T14:23:03.715Z,7.20
2019-03-19T14:25:33.211Z,7.20
2019-03-19T14:28:02.669Z,7.20
2019-03-19T14:30:32.102Z,7.10
2019-03-19T14:33:01.656Z,7.10
2019-03-19T14:35:37.255Z,7.10
2019-03-19T14:38:03.115Z,7.10
2019-03-19T14:40:32.520Z,7.30
2019-03-19T14:43:02.044Z,7.30
2019-03-19T14:45:31.412Z,7.40
2019-03-19T14:48:00.949Z,7.30
2019-03-19T14:50:30.451Z,7.20
2019-03-19T14:52:59.871Z,7.20
2019-03-19T14:55:29.401Z,7.20
2019-03-19T14:57:59.136Z,7.40
2019-03-19T15:00:28.617Z,7.20
2019-03-19T15:02:58.027Z,7.30
2019-03-19T15:05:27.587Z,7.30
2019-03-19T15:07:57.073Z,7.30
2019-03-19T15:10:26.499Z,7.40
2019-03-19T15:12:55.954Z,7.40
2019-03-19T15:15:25.424Z,7.40
2019-03-19T15:17:54.974Z,7.30
2019-03-19T15:20:24.675Z,7.30
2019-03-19T15:22:54.103Z,7.30
2019-03-19T15:25:23.602Z,7.30
2019-03-19T15:27:53.115Z,7.20
2019-03-19T15:30:22.545Z,7.20
2019-03-19T15:35:20.848Z,7.00
2019-03-19T15:37:50.320Z,7.00
2019-03-19T15:40:20.161Z,6.90
2019-03-19T15:42:49.630Z,6.90
2019-03-19T15:45:19.059Z,6.90
2019-03-19T15:47:48.566Z,6.80
2019-03-19T15:50:18.118Z,6.80
2019-03-19T15:52:47.520Z,6.80
2019-03-19T15:55:17.020Z,6.70
2019-03-19T15:57:46.467Z,6.70
2019-03-19T16:00:16.793Z,6.80
2019-03-19T16:02:46.520Z,6.70
2019-03-19T16:05:15.980Z,6.80
2019-03-19T16:07:45.429Z,6.60
2019-03-19T16:10:15.017Z,6.60
2019-03-19T16:12:44.407Z,6.40
2019-03-19T16:15:14.494Z,6.40
2019-03-19T16:17:43.974Z,6.30
2019-03-19T16:20:14.525Z,6.20
2019-03-19T16:22:45.186Z,6.10
2019-03-19T16:25:14.798Z,6.10
2019-03-19T16:27:44.249Z,6.10
2019-03-19T16:30:14.641Z,6.00
2019-03-19T16:32:44.145Z,5.90
2019-03-19T16:35:13.859Z,5.90
2019-03-19T16:37:43.444Z,6.00
2019-03-19T16:40:15.824Z,5.90
2019-03-19T16:42:45.351Z,6.00
2019-03-19T16:45:17.549Z,5.90
2019-03-19T16:47:46.167Z,5.70
2019-03-19T16:50:16.118Z,5.80
2019-03-19T16:52:46.090Z,5.70
2019-03-19T16:55:15.893Z,5.80
2019-03-19T16:57:45.469Z,5.80
2019-03-19T17:00:16.787Z,5.70
2019-03-19T17:02:46.266Z,5.60
2019-03-19T17:05:16.513Z,5.60
2019-03-19T17:07:46.050Z,5.50
2019-03-19T17:10:16.323Z,5.50
2019-03-19T17:12:45.916Z,5.30
2019-03-19T17:15:15.971Z,5.20
2019-03-19T17:17:45.726Z,5.00
2019-03-19T17:20:15.568Z,4.80
2019-03-19T17:22:44.975Z,4.80
2019-03-19T17:25:15.587Z,4.70
2019-03-19T17:27:45.018Z,4.70
2019-03-19T17:30:19.861Z,4.50
2019-03-19T17:32:49.262Z,4.50
2019-03-19T17:35:21.672Z,4.60
2019-03-19T17:37:51.134Z,4.70
2019-03-19T17:40:20.838Z,4.70
2019-03-19T17:42:50.384Z,4.60
2019-03-19T17:45:19.858Z,4.50
2019-03-19T17:47:49.285Z,4.50
2019-03-19T17:50:19.646Z,4.50
2019-03-19T17:52:49.828Z,4.40
2019-03-19T17:55:19.411Z,4.30
2019-03-19T17:57:48.896Z,4.40
2019-03-19T18:00:23.178Z,4.20
2019-03-19T18:02:52.670Z,4.10
2019-03-19T18:05:22.217Z,4.20
2019-03-19T18:07:51.659Z,4.00
2019-03-19T18:10:21.185Z,3.90
2019-03-19T18:12:50.622Z,3.80
2019-03-19T18:15:20.071Z,3.70
2019-03-19T18:17:49.481Z,3.70
2019-03-19T18:20:18.976Z,4.00
2019-03-19T18:22:49.381Z,3.80
2019-03-19T18:25:18.823Z,3.60
2019-03-19T18:27:48.350Z,3.60
2019-03-19T18:30:17.819Z,3.50
2019-03-19T18:32:47.239Z,3.50
2019-03-19T18:35:16.677Z,3.40
2019-03-19T18:37:46.107Z,3.20
2019-03-19T18:40:15.575Z,3.10
2019-03-19T18:42:45.101Z,3.00
2019-03-19T18:45:14.595Z,3.00
2019-03-19T18:47:44.107Z,2.90
2019-03-19T18:50:14.150Z,3.00
2019-03-19T18:52:43.617Z,3.30
2019-03-19T18:55:13.317Z,3.10
2019-03-19T18:57:42.879Z,3.00
2019-03-19T19:00:15.841Z,2.90
2019-03-19T19:02:50.053Z,3.00
2019-03-19T19:05:16.517Z,2.90
2019-03-19T19:07:45.995Z,3.00
2019-03-19T19:10:15.488Z,3.00
2019-03-19T19:12:44.945Z,3.20
2019-03-19T19:15:15.001Z,3.00
2019-03-19T19:17:44.489Z,2.80
2019-03-19T19:20:14.138Z,2.80
2019-03-19T19:22:43.601Z,3.00
2019-03-19T19:25:14.008Z,3.00
2019-03-19T19:27:43.505Z,3.10
2019-03-19T19:30:15.239Z,3.00
2019-03-19T19:32:44.706Z,2.90
2019-03-19T19:35:14.243Z,3.00
2019-03-19T19:37:43.670Z,3.10
2019-03-19T19:40:14.088Z,3.00
2019-03-19T19:42:43.649Z,3.00
2019-03-19T19:45:13.159Z,2.80
2019-03-19T19:47:42.786Z,2.80
2019-03-19T19:50:13.526Z,2.80
2019-03-19T19:52:43.804Z,2.70
2019-03-19T19:55:21.400Z,2.70
2019-03-19T19:57:51.167Z,3.00
2019-03-19T20:00:20.714Z,3.10
2019-03-19T20:02:50.230Z,3.10
2019-03-19T20:05:19.670Z,3.30
2019-03-19T20:07:49.147Z,3.50
2019-03-19T20:10:18.814Z,3.50
2019-03-19T20:12:48.256Z,3.70
2019-03-19T20:15:17.997Z,3.50
2019-03-19T20:17:47.769Z,3.50
2019-03-19T20:20:18.006Z,3.30
2019-03-19T20:22:47.455Z,3.30
2019-03-19T20:25:16.952Z,3.20
2019-03-19T20:27:46.387Z,3.30
2019-03-19T20:30:17.561Z,3.30
2019-03-19T20:32:47.153Z,3.50
2019-03-19T20:35:16.652Z,3.50
2019-03-19T20:37:46.123Z,3.60
2019-03-19T20:40:15.629Z,3.60
2019-03-19T20:42:45.142Z,3.70
2019-03-19T20:45:14.645Z,3.80
2019-03-19T20:47:44.118Z,3.70
2019-03-19T20:50:22.159Z,3.80
2019-03-19T20:52:51.672Z,3.80
2019-03-19T20:55:21.196Z,3.70
2019-03-19T20:57:50.694Z,3.80
2019-03-19T21:00:20.131Z,3.90
2019-03-19T21:02:49.605Z,3.90
2019-03-19T21:05:19.051Z,3.80
2019-03-19T21:07:48.618Z,3.90
2019-03-19T21:10:19.021Z,3.70
2019-03-19T21:12:48.525Z,3.60
2019-03-19T21:15:19.651Z,3.30
2019-03-19T21:17:49.328Z,3.20
2019-03-19T21:20:18.770Z,3.10
2019-03-19T21:22:48.231Z,2.90
2019-03-19T21:25:17.881Z,2.80
2019-03-19T21:27:47.308Z,2.60
2019-03-19T21:30:18.550Z,2.30
2019-03-19T21:32:47.986Z,2.10
2019-03-19T21:35:19.800Z,2.00
2019-03-19T21:37:49.394Z,1.90
2019-03-19T21:40:19.002Z,1.80
2019-03-19T21:42:48.479Z,1.70
2019-03-19T21:47:46.829Z,1.40
2019-03-19T21:50:16.321Z,1.30
2019-03-19T21:52:45.769Z,1.20
2019-03-19T21:55:15.396Z,1.00
2019-03-19T21:57:44.829Z,0.90
2019-03-19T22:00:15.652Z,1.00
2019-03-19T22:02:45.139Z,1.00
2019-03-19T22:05:14.574Z,0.90
2019-03-19T22:07:43.995Z,0.80
2019-03-19T22:10:14.273Z,0.60
2019-03-19T22:12:44.193Z,0.60
2019-03-19T22:15:15.587Z,0.40
2019-03-19T22:17:45.148Z,0.50
2019-03-19T22:20:15.290Z,0.70
2019-03-19T22:22:44.755Z,0.60
2019-03-19T22:25:14.234Z,0.70
2019-03-19T22:27:43.651Z,0.90
2019-03-19T22:30:14.995Z,1.10
2019-03-19T22:32:44.577Z,1.00
2019-03-19T22:35:14.908Z,0.90
2019-03-19T22:37:44.351Z,0.70
2019-03-19T22:40:14.828Z,0.70
2019-03-19T22:42:44.287Z,0.50
2019-03-19T22:45:14.621Z,0.50
2019-03-19T22:47:44.132Z,0.40
2019-03-19T22:50:14.313Z,0.60
2019-03-19T22:52:43.790Z,0.70
2019-03-19T22:55:13.480Z,0.50
2019-03-19T22:57:42.910Z,0.60
2019-03-19T23:00:37.274Z,0.60
2019-03-19T23:03:07.357Z,0.70
2019-03-19T23:05:37.404Z,0.70
2019-03-19T23:08:06.900Z,0.80
2019-03-19T23:10:36.897Z,1.00
2019-03-19T23:13:06.429Z,1.00
2019-03-19T23:15:36.004Z,1.10
2019-03-19T23:18:05.574Z,1.40
2019-03-19T23:20:34.992Z,1.30
2019-03-19T23:23:04.476Z,1.40
2019-03-19T23:25:33.958Z,1.40
2019-03-19T23:28:03.438Z,1.40
2019-03-19T23:30:32.880Z,1.40
2019-03-19T23:33:02.368Z,1.50
2019-03-19T23:35:31.808Z,1.40
2019-03-19T23:38:01.262Z,1.50
2019-03-19T23:40:30.709Z,1.40
2019-03-19T23:43:00.868Z,1.40
2019-03-19T23:45:31.564Z,1.40
2019-03-19T23:48:00.994Z,1.40
2019-03-19T23:50:30.420Z,1.60
2019-03-19T23:52:59.937Z,1.70
2019-03-19T23:55:29.368Z,1.60
2019-03-19T23:57:58.812Z,1.50
